Galena, Nevada Weather observations

Data are for 60 minute period ending nearest time listed.
 Day   Time    Ave.   Ave.  Ave.  Vector   Max.   Total    Solar   
  of    of     Air    Rel.  Wind   Wind    Wind  Precip.   Rad.    
Year   Day     Temp.  Hum.  Speed  Dir.    Gust                    
2026   (PST)    F      %     mph   deg.    mph     in.     W/m2    
------------------------------------------------------------------- 
 125    1:00   42.0    98    1.0    78      9.0    1.16       0  
 125    2:00   41.0    98    2.0   179      5.0    1.16       0  
 125    3:00   41.0    99    2.0   195      4.0    1.16       0  
 125    4:00   41.0    99    0.0   191      4.0    1.16       0  
 125    5:00   41.0    99    1.0   347      3.0    1.16       0  
 125    6:00   42.0    99    0.0    83      3.0    1.16      10  
 125    7:00   43.0    96    0.0   120      2.0    1.16      36  
 125    8:00   44.0    94    4.0   180      6.0    1.16      80  
 125    9:00   45.0    94    4.0   152      7.0    1.16     130  
 125   10:00   50.0    84    1.0    17      7.0    1.16     369  
 125   11:00   56.0    69    3.0    34     11.0    1.16     631  
 125   12:00   57.0    61    7.0     6     13.0    1.16     692  
 125   13:00   59.0    53    6.0    74     12.0    1.16     836  
 125   14:00   62.0    45    7.0    33     14.0    1.16     831  
 125   15:00   64.0    40    6.0     3     12.0    1.16     660  
 125   16:00   65.0    38    5.0    63     13.0    1.16     611  
 125   17:00   67.0    33    3.0    70     14.0    1.16     477  
 125   18:00   64.0    40    3.0   342     14.0    1.16      44  
 125   19:00   55.0    59    2.0   234      6.0    1.16      21  
 125   20:00   55.0    58    4.0   195      7.0    1.16       1  
 125   21:00   57.0    50    4.0   325      9.0    1.16       0  
 125   22:00   54.0    61    1.0   249      5.0    1.16       0  
 125   23:00   52.0    64    3.0   279      7.0    1.16       0  
 126    0:00   51.0    64    1.0   242      5.0    1.16       0  

Return to Galena, Nevada graphs page.


Western Regional Climate Center,wrcc@dri.edu